sensor_id;sensor_type;location;lat;lon;timestamp;pressure;altitude;pressure_sealevel;temperature;humidity
37610;BME280;23457;51.966;8.230;2023-02-04T00:01:45;102271.00;;;6.58;100.00
37610;BME280;23457;51.966;8.230;2023-02-04T00:04:12;102265.28;;;6.34;100.00
37610;BME280;23457;51.966;8.230;2023-02-04T00:06:39;102255.50;;;6.58;100.00
37610;BME280;23457;51.966;8.230;2023-02-04T00:09:05;102260.94;;;6.33;100.00
37610;BME280;23457;51.966;8.230;2023-02-04T00:11:32;102262.44;;;6.44;100.00
37610;BME280;23457;51.966;8.230;2023-02-04T00:13:59;102264.06;;;6.42;100.00
37610;BME280;23457;51.966;8.230;2023-02-04T00:16:25;102264.28;;;6.61;100.00
37610;BME280;23457;51.966;8.230;2023-02-04T00:18:52;102257.44;;;6.47;100.00
37610;BME280;23457;51.966;8.230;2023-02-04T00:21:19;102262.00;;;6.36;100.00
37610;BME280;23457;51.966;8.230;2023-02-04T00:23:45;102268.13;;;6.53;100.00
37610;BME280;23457;51.966;8.230;2023-02-04T00:26:12;102272.41;;;6.38;100.00
37610;BME280;23457;51.966;8.230;2023-02-04T00:28:39;102277.06;;;6.29;100.00
37610;BME280;23457;51.966;8.230;2023-02-04T00:31:06;102278.66;;;6.41;100.00
37610;BME280;23457;51.966;8.230;2023-02-04T00:33:32;102288.97;;;6.27;100.00
37610;BME280;23457;51.966;8.230;2023-02-04T00:35:59;102289.78;;;6.55;100.00
37610;BME280;23457;51.966;8.230;2023-02-04T00:38:25;102290.72;;;6.72;100.00
37610;BME280;23457;51.966;8.230;2023-02-04T00:40:52;102288.22;;;6.73;100.00
37610;BME280;23457;51.966;8.230;2023-02-04T00:43:19;102296.97;;;6.46;100.00
37610;BME280;23457;51.966;8.230;2023-02-04T00:45:45;102305.72;;;6.48;100.00
37610;BME280;23457;51.966;8.230;2023-02-04T00:48:12;102302.22;;;6.62;100.00
37610;BME280;23457;51.966;8.230;2023-02-04T00:50:39;102313.03;;;6.40;100.00
37610;BME280;23457;51.966;8.230;2023-02-04T00:53:06;102323.16;;;6.23;100.00
37610;BME280;23457;51.966;8.230;2023-02-04T00:55:32;102321.38;;;6.66;100.00
37610;BME280;23457;51.966;8.230;2023-02-04T00:57:59;102316.94;;;6.63;100.00
37610;BME280;23457;51.966;8.230;2023-02-04T01:00:26;102321.06;;;6.45;100.00
37610;BME280;23457;51.966;8.230;2023-02-04T01:02:52;102331.34;;;6.60;100.00
37610;BME280;23457;51.966;8.230;2023-02-04T01:05:19;102332.81;;;6.69;100.00
37610;BME280;23457;51.966;8.230;2023-02-04T01:07:46;102340.28;;;6.50;100.00
37610;BME280;23457;51.966;8.230;2023-02-04T01:10:12;102345.81;;;6.56;100.00
37610;BME280;23457;51.966;8.230;2023-02-04T01:12:40;102349.63;;;6.77;100.00
37610;BME280;23457;51.966;8.230;2023-02-04T01:15:08;102347.41;;;6.54;100.00
37610;BME280;23457;51.966;8.230;2023-02-04T01:17:34;102346.84;;;6.74;100.00
37610;BME280;23457;51.966;8.230;2023-02-04T01:20:01;102350.16;;;6.72;100.00
37610;BME280;23457;51.966;8.230;2023-02-04T01:22:28;102371.09;;;6.47;100.00
37610;BME280;23457;51.966;8.230;2023-02-04T01:24:54;102367.88;;;6.36;100.00
37610;BME280;23457;51.966;8.230;2023-02-04T01:27:39;102372.44;;;6.55;100.00
37610;BME280;23457;51.966;8.230;2023-02-04T01:30:07;102366.81;;;6.47;100.00
37610;BME280;23457;51.966;8.230;2023-02-04T01:32:34;102373.59;;;6.31;100.00
37610;BME280;23457;51.966;8.230;2023-02-04T01:35:00;102379.63;;;6.61;100.00
37610;BME280;23457;51.966;8.230;2023-02-04T01:37:27;102380.09;;;6.54;100.00
37610;BME280;23457;51.966;8.230;2023-02-04T01:39:54;102385.97;;;6.51;100.00
37610;BME280;23457;51.966;8.230;2023-02-04T01:42:20;102384.63;;;6.43;100.00
37610;BME280;23457;51.966;8.230;2023-02-04T01:44:47;102389.63;;;6.55;100.00
37610;BME280;23457;51.966;8.230;2023-02-04T01:47:14;102385.56;;;6.16;100.00
37610;BME280;23457;51.966;8.230;2023-02-04T01:49:41;102391.13;;;6.36;100.00
37610;BME280;23457;51.966;8.230;2023-02-04T01:52:09;102393.53;;;6.48;100.00
37610;BME280;23457;51.966;8.230;2023-02-04T01:54:36;102382.13;;;6.30;100.00
37610;BME280;23457;51.966;8.230;2023-02-04T01:57:05;102386.41;;;6.44;100.00
37610;BME280;23457;51.966;8.230;2023-02-04T01:59:34;102388.97;;;6.29;100.00
37610;BME280;23457;51.966;8.230;2023-02-04T02:02:01;102396.19;;;6.35;100.00
37610;BME280;23457;51.966;8.230;2023-02-04T02:04:30;102398.75;;;6.35;100.00
37610;BME280;23457;51.966;8.230;2023-02-04T02:07:02;102399.88;;;6.10;100.00
37610;BME280;23457;51.966;8.230;2023-02-04T02:09:31;102408.00;;;6.17;100.00
37610;BME280;23457;51.966;8.230;2023-02-04T02:12:00;102404.78;;;6.21;100.00
37610;BME280;23457;51.966;8.230;2023-02-04T02:14:28;102421.38;;;5.96;100.00
37610;BME280;23457;51.966;8.230;2023-02-04T02:16:55;102423.75;;;6.21;100.00
37610;BME280;23457;51.966;8.230;2023-02-04T02:19:28;102417.47;;;6.31;100.00
37610;BME280;23457;51.966;8.230;2023-02-04T02:22:03;102426.19;;;6.18;100.00
37610;BME280;23457;51.966;8.230;2023-02-04T02:24:32;102433.88;;;6.03;100.00
37610;BME280;23457;51.966;8.230;2023-02-04T02:27:08;102433.19;;;6.06;100.00
37610;BME280;23457;51.966;8.230;2023-02-04T02:29:39;102443.34;;;6.18;100.00
37610;BME280;23457;51.966;8.230;2023-02-04T02:32:09;102445.41;;;5.95;100.00
37610;BME280;23457;51.966;8.230;2023-02-04T02:34:38;102447.47;;;6.29;100.00
37610;BME280;23457;51.966;8.230;2023-02-04T02:37:05;102448.13;;;6.11;100.00
37610;BME280;23457;51.966;8.230;2023-02-04T02:39:32;102447.28;;;6.26;100.00
37610;BME280;23457;51.966;8.230;2023-02-04T02:41:59;102449.13;;;6.14;100.00
37610;BME280;23457;51.966;8.230;2023-02-04T02:44:26;102446.72;;;6.17;100.00
37610;BME280;23457;51.966;8.230;2023-02-04T02:46:56;102452.25;;;6.23;100.00
37610;BME280;23457;51.966;8.230;2023-02-04T02:49:22;102467.19;;;6.41;100.00
37610;BME280;23457;51.966;8.230;2023-02-04T02:51:49;102466.22;;;5.85;100.00
37610;BME280;23457;51.966;8.230;2023-02-04T02:54:24;102460.25;;;6.13;100.00
37610;BME280;23457;51.966;8.230;2023-02-04T02:56:54;102454.22;;;6.27;100.00
37610;BME280;23457;51.966;8.230;2023-02-04T02:59:23;102466.28;;;6.13;100.00
37610;BME280;23457;51.966;8.230;2023-02-04T03:01:53;102457.81;;;6.01;100.00
37610;BME280;23457;51.966;8.230;2023-02-04T03:04:25;102460.63;;;6.19;100.00
37610;BME280;23457;51.966;8.230;2023-02-04T03:06:54;102456.31;;;6.47;100.00
37610;BME280;23457;51.966;8.230;2023-02-04T03:09:23;102457.88;;;6.58;100.00
37610;BME280;23457;51.966;8.230;2023-02-04T03:11:51;102462.34;;;6.75;100.00
37610;BME280;23457;51.966;8.230;2023-02-04T03:14:18;102468.69;;;6.38;100.00
37610;BME280;23457;51.966;8.230;2023-02-04T03:16:45;102471.41;;;6.54;100.00
37610;BME280;23457;51.966;8.230;2023-02-04T03:19:13;102470.84;;;6.60;100.00
37610;BME280;23457;51.966;8.230;2023-02-04T03:21:40;102457.63;;;6.26;100.00
37610;BME280;23457;51.966;8.230;2023-02-04T03:24:08;102470.19;;;6.34;100.00
37610;BME280;23457;51.966;8.230;2023-02-04T03:26:36;102473.16;;;6.40;100.00
37610;BME280;23457;51.966;8.230;2023-02-04T03:29:06;102488.59;;;6.54;100.00
37610;BME280;23457;51.966;8.230;2023-02-04T03:31:33;102491.69;;;6.48;100.00
37610;BME280;23457;51.966;8.230;2023-02-04T03:34:00;102491.22;;;6.68;100.00
37610;BME280;23457;51.966;8.230;2023-02-04T03:36:27;102491.19;;;6.54;100.00
37610;BME280;23457;51.966;8.230;2023-02-04T03:38:53;102492.28;;;6.29;100.00
37610;BME280;23457;51.966;8.230;2023-02-04T03:41:20;102502.19;;;6.23;100.00
37610;BME280;23457;51.966;8.230;2023-02-04T03:43:47;102500.81;;;6.56;100.00
37610;BME280;23457;51.966;8.230;2023-02-04T03:46:14;102497.38;;;6.42;100.00
37610;BME280;23457;51.966;8.230;2023-02-04T03:48:41;102503.69;;;6.33;100.00
37610;BME280;23457;51.966;8.230;2023-02-04T03:51:07;102507.41;;;6.38;100.00
37610;BME280;23457;51.966;8.230;2023-02-04T03:53:34;102518.94;;;6.43;100.00
37610;BME280;23457;51.966;8.230;2023-02-04T03:56:00;102511.59;;;6.36;100.00
37610;BME280;23457;51.966;8.230;2023-02-04T03:58:27;102506.78;;;6.55;100.00
37610;BME280;23457;51.966;8.230;2023-02-04T04:00:53;102517.94;;;6.69;100.00
37610;BME280;23457;51.966;8.230;2023-02-04T04:03:20;102515.38;;;6.83;100.00
37610;BME280;23457;51.966;8.230;2023-02-04T04:05:46;102521.75;;;6.75;100.00
37610;BME280;23457;51.966;8.230;2023-02-04T04:08:13;102524.97;;;6.71;100.00
37610;BME280;23457;51.966;8.230;2023-02-04T04:10:40;102535.56;;;6.76;100.00
37610;BME280;23457;51.966;8.230;2023-02-04T04:13:07;102534.34;;;6.69;100.00
37610;BME280;23457;51.966;8.230;2023-02-04T04:15:34;102533.88;;;6.76;100.00
37610;BME280;23457;51.966;8.230;2023-02-04T04:18:00;102538.72;;;6.85;100.00
37610;BME280;23457;51.966;8.230;2023-02-04T04:20:29;102540.00;;;6.64;100.00
37610;BME280;23457;51.966;8.230;2023-02-04T04:22:56;102542.97;;;6.42;100.00
37610;BME280;23457;51.966;8.230;2023-02-04T04:25:23;102542.94;;;6.55;100.00
37610;BME280;23457;51.966;8.230;2023-02-04T04:27:50;102541.44;;;6.73;100.00
37610;BME280;23457;51.966;8.230;2023-02-04T04:30:17;102549.50;;;6.78;100.00
37610;BME280;23457;51.966;8.230;2023-02-04T04:32:43;102553.38;;;6.71;100.00
37610;BME280;23457;51.966;8.230;2023-02-04T04:35:10;102554.00;;;6.67;100.00
37610;BME280;23457;51.966;8.230;2023-02-04T04:37:37;102561.22;;;6.58;100.00
37610;BME280;23457;51.966;8.230;2023-02-04T04:40:03;102559.03;;;6.51;100.00
37610;BME280;23457;51.966;8.230;2023-02-04T04:42:30;102563.63;;;6.42;100.00
37610;BME280;23457;51.966;8.230;2023-02-04T04:44:57;102565.78;;;6.49;100.00
37610;BME280;23457;51.966;8.230;2023-02-04T04:47:23;102568.88;;;6.57;100.00
37610;BME280;23457;51.966;8.230;2023-02-04T04:49:50;102578.47;;;6.59;100.00
37610;BME280;23457;51.966;8.230;2023-02-04T04:52:17;102585.97;;;6.55;100.00
37610;BME280;23457;51.966;8.230;2023-02-04T04:54:43;102592.03;;;6.55;100.00
37610;BME280;23457;51.966;8.230;2023-02-04T04:57:10;102599.56;;;6.52;100.00
37610;BME280;23457;51.966;8.230;2023-02-04T04:59:36;102603.28;;;6.42;100.00
37610;BME280;23457;51.966;8.230;2023-02-04T05:02:03;102598.13;;;6.29;100.00
37610;BME280;23457;51.966;8.230;2023-02-04T05:04:29;102605.56;;;6.38;100.00
37610;BME280;23457;51.966;8.230;2023-02-04T05:06:56;102608.13;;;6.51;100.00
37610;BME280;23457;51.966;8.230;2023-02-04T05:09:23;102607.81;;;6.46;100.00
37610;BME280;23457;51.966;8.230;2023-02-04T05:11:49;102604.19;;;6.43;100.00
37610;BME280;23457;51.966;8.230;2023-02-04T05:14:16;102616.69;;;6.37;100.00
37610;BME280;23457;51.966;8.230;2023-02-04T05:16:42;102614.53;;;6.30;100.00
37610;BME280;23457;51.966;8.230;2023-02-04T05:19:09;102615.41;;;6.30;100.00
37610;BME280;23457;51.966;8.230;2023-02-04T05:21:35;102625.75;;;6.17;100.00
37610;BME280;23457;51.966;8.230;2023-02-04T05:24:02;102625.56;;;6.14;100.00
37610;BME280;23457;51.966;8.230;2023-02-04T05:26:29;102638.25;;;6.11;100.00
37610;BME280;23457;51.966;8.230;2023-02-04T05:28:57;102637.00;;;6.04;100.00
37610;BME280;23457;51.966;8.230;2023-02-04T05:31:27;102640.38;;;6.03;100.00
37610;BME280;23457;51.966;8.230;2023-02-04T05:33:54;102647.41;;;5.93;100.00
37610;BME280;23457;51.966;8.230;2023-02-04T05:36:21;102649.06;;;5.79;100.00
37610;BME280;23457;51.966;8.230;2023-02-04T05:38:48;102659.22;;;5.89;100.00
37610;BME280;23457;51.966;8.230;2023-02-04T05:41:14;102659.91;;;6.00;100.00
37610;BME280;23457;51.966;8.230;2023-02-04T05:43:41;102665.75;;;5.97;100.00
37610;BME280;23457;51.966;8.230;2023-02-04T05:46:08;102675.91;;;6.07;100.00
37610;BME280;23457;51.966;8.230;2023-02-04T05:48:35;102683.84;;;6.10;100.00
37610;BME280;23457;51.966;8.230;2023-02-04T05:51:02;102691.78;;;6.00;100.00
37610;BME280;23457;51.966;8.230;2023-02-04T05:53:28;102683.75;;;5.71;100.00
37610;BME280;23457;51.966;8.230;2023-02-04T05:55:55;102697.63;;;5.60;100.00
37610;BME280;23457;51.966;8.230;2023-02-04T05:58:21;102695.28;;;5.76;100.00
37610;BME280;23457;51.966;8.230;2023-02-04T06:00:48;102693.09;;;5.69;100.00
37610;BME280;23457;51.966;8.230;2023-02-04T06:03:15;102702.59;;;5.57;100.00
37610;BME280;23457;51.966;8.230;2023-02-04T06:05:44;102703.59;;;5.72;100.00
37610;BME280;23457;51.966;8.230;2023-02-04T06:08:11;102710.91;;;5.53;100.00
37610;BME280;23457;51.966;8.230;2023-02-04T06:10:37;102708.72;;;5.59;100.00
37610;BME280;23457;51.966;8.230;2023-02-04T06:13:04;102713.53;;;5.66;100.00
37610;BME280;23457;51.966;8.230;2023-02-04T06:15:30;102707.94;;;5.60;100.00
37610;BME280;23457;51.966;8.230;2023-02-04T06:17:57;102717.72;;;5.77;100.00
37610;BME280;23457;51.966;8.230;2023-02-04T06:20:23;102705.59;;;5.76;100.00
37610;BME280;23457;51.966;8.230;2023-02-04T06:22:50;102712.84;;;5.68;100.00
37610;BME280;23457;51.966;8.230;2023-02-04T06:25:17;102718.16;;;5.58;100.00
37610;BME280;23457;51.966;8.230;2023-02-04T06:27:44;102722.84;;;5.64;100.00
37610;BME280;23457;51.966;8.230;2023-02-04T06:30:11;102721.47;;;5.69;100.00
37610;BME280;23457;51.966;8.230;2023-02-04T06:32:38;102726.00;;;5.60;100.00
37610;BME280;23457;51.966;8.230;2023-02-04T06:35:07;102727.78;;;5.61;100.00
37610;BME280;23457;51.966;8.230;2023-02-04T06:37:34;102729.38;;;5.59;100.00
37610;BME280;23457;51.966;8.230;2023-02-04T06:40:01;102735.88;;;5.40;100.00
37610;BME280;23457;51.966;8.230;2023-02-04T06:42:28;102740.91;;;5.39;100.00
37610;BME280;23457;51.966;8.230;2023-02-04T06:44:54;102732.28;;;5.38;100.00
37610;BME280;23457;51.966;8.230;2023-02-04T06:47:21;102732.78;;;5.21;100.00
37610;BME280;23457;51.966;8.230;2023-02-04T06:49:48;102734.06;;;5.15;100.00
37610;BME280;23457;51.966;8.230;2023-02-04T06:52:14;102742.34;;;5.11;100.00
37610;BME280;23457;51.966;8.230;2023-02-04T06:54:41;102751.34;;;5.04;100.00
37610;BME280;23457;51.966;8.230;2023-02-04T06:57:08;102753.16;;;5.05;100.00
37610;BME280;23457;51.966;8.230;2023-02-04T06:59:36;102770.97;;;5.02;100.00
37610;BME280;23457;51.966;8.230;2023-02-04T07:02:04;102779.25;;;4.98;100.00
37610;BME280;23457;51.966;8.230;2023-02-04T07:04:31;102769.88;;;4.87;100.00
37610;BME280;23457;51.966;8.230;2023-02-04T07:06:57;102763.94;;;4.88;100.00
37610;BME280;23457;51.966;8.230;2023-02-04T07:09:24;102772.44;;;4.87;100.00
37610;BME280;23457;51.966;8.230;2023-02-04T07:11:51;102776.38;;;4.82;100.00
37610;BME280;23457;51.966;8.230;2023-02-04T07:14:19;102778.63;;;4.89;100.00
37610;BME280;23457;51.966;8.230;2023-02-04T07:16:45;102788.25;;;4.91;100.00
37610;BME280;23457;51.966;8.230;2023-02-04T07:19:12;102782.97;;;4.90;100.00
37610;BME280;23457;51.966;8.230;2023-02-04T07:21:38;102784.91;;;4.81;100.00
37610;BME280;23457;51.966;8.230;2023-02-04T07:24:05;102792.97;;;4.74;100.00
37610;BME280;23457;51.966;8.230;2023-02-04T07:26:32;102783.13;;;4.68;100.00
37610;BME280;23457;51.966;8.230;2023-02-04T07:28:59;102796.19;;;4.83;100.00
37610;BME280;23457;51.966;8.230;2023-02-04T07:31:26;102798.22;;;4.87;100.00
37610;BME280;23457;51.966;8.230;2023-02-04T07:33:53;102802.81;;;4.91;100.00
37610;BME280;23457;51.966;8.230;2023-02-04T07:36:19;102805.63;;;4.94;100.00
37610;BME280;23457;51.966;8.230;2023-02-04T07:38:46;102807.97;;;4.91;100.00
37610;BME280;23457;51.966;8.230;2023-02-04T07:41:12;102802.56;;;4.99;100.00
37610;BME280;23457;51.966;8.230;2023-02-04T07:43:39;102811.06;;;4.98;100.00
37610;BME280;23457;51.966;8.230;2023-02-04T07:46:06;102805.63;;;4.94;100.00
37610;BME280;23457;51.966;8.230;2023-02-04T07:48:33;102802.13;;;5.05;100.00
37610;BME280;23457;51.966;8.230;2023-02-04T07:50:59;102799.88;;;4.98;100.00
37610;BME280;23457;51.966;8.230;2023-02-04T07:53:26;102798.94;;;5.09;100.00
37610;BME280;23457;51.966;8.230;2023-02-04T07:55:53;102813.75;;;5.12;100.00
37610;BME280;23457;51.966;8.230;2023-02-04T07:58:19;102804.31;;;5.12;100.00
37610;BME280;23457;51.966;8.230;2023-02-04T08:00:46;102813.41;;;5.07;100.00
37610;BME280;23457;51.966;8.230;2023-02-04T08:03:12;102817.34;;;5.14;100.00
37610;BME280;23457;51.966;8.230;2023-02-04T08:05:39;102825.19;;;5.15;100.00
37610;BME280;23457;51.966;8.230;2023-02-04T08:08:05;102831.13;;;5.14;100.00
37610;BME280;23457;51.966;8.230;2023-02-04T08:10:32;102826.28;;;5.07;100.00
37610;BME280;23457;51.966;8.230;2023-02-04T08:12:59;102832.69;;;5.12;100.00
37610;BME280;23457;51.966;8.230;2023-02-04T08:15:26;102836.28;;;5.14;100.00
37610;BME280;23457;51.966;8.230;2023-02-04T08:17:52;102838.03;;;5.27;100.00
37610;BME280;23457;51.966;8.230;2023-02-04T08:20:19;102844.13;;;5.16;100.00
37610;BME280;23457;51.966;8.230;2023-02-04T08:22:45;102841.06;;;5.21;100.00
37610;BME280;23457;51.966;8.230;2023-02-04T08:25:12;102850.94;;;5.27;100.00
37610;BME280;23457;51.966;8.230;2023-02-04T08:27:39;102847.56;;;5.28;100.00
37610;BME280;23457;51.966;8.230;2023-02-04T08:30:06;102857.63;;;5.36;100.00
37610;BME280;23457;51.966;8.230;2023-02-04T08:32:34;102860.44;;;5.39;100.00
37610;BME280;23457;51.966;8.230;2023-02-04T08:35:01;102856.28;;;5.42;100.00
37610;BME280;23457;51.966;8.230;2023-02-04T08:37:27;102862.75;;;5.48;100.00
37610;BME280;23457;51.966;8.230;2023-02-04T08:39:54;102869.66;;;5.61;100.00
37610;BME280;23457;51.966;8.230;2023-02-04T08:42:22;102864.72;;;5.64;100.00
37610;BME280;23457;51.966;8.230;2023-02-04T08:44:48;102879.97;;;5.61;100.00
37610;BME280;23457;51.966;8.230;2023-02-04T08:47:15;102878.38;;;5.74;100.00
37610;BME280;23457;51.966;8.230;2023-02-04T08:49:41;102877.00;;;5.91;100.00
37610;BME280;23457;51.966;8.230;2023-02-04T08:52:08;102884.81;;;6.04;100.00
37610;BME280;23457;51.966;8.230;2023-02-04T08:54:35;102882.44;;;6.07;100.00
37610;BME280;23457;51.966;8.230;2023-02-04T08:57:02;102885.88;;;6.08;100.00
37610;BME280;23457;51.966;8.230;2023-02-04T08:59:29;102886.66;;;5.94;100.00
37610;BME280;23457;51.966;8.230;2023-02-04T09:01:55;102883.53;;;6.11;100.00
37610;BME280;23457;51.966;8.230;2023-02-04T09:04:23;102895.34;;;6.07;100.00
37610;BME280;23457;51.966;8.230;2023-02-04T09:06:50;102891.19;;;6.23;100.00
37610;BME280;23457;51.966;8.230;2023-02-04T09:09:17;102895.81;;;6.02;100.00
37610;BME280;23457;51.966;8.230;2023-02-04T09:11:43;102897.75;;;6.18;100.00
37610;BME280;23457;51.966;8.230;2023-02-04T09:14:10;102893.38;;;6.17;100.00
37610;BME280;23457;51.966;8.230;2023-02-04T09:16:37;102893.59;;;6.20;100.00
37610;BME280;23457;51.966;8.230;2023-02-04T09:19:04;102905.66;;;6.07;100.00
37610;BME280;23457;51.966;8.230;2023-02-04T09:21:31;102915.56;;;6.01;100.00
37610;BME280;23457;51.966;8.230;2023-02-04T09:23:57;102923.41;;;6.28;100.00
37610;BME280;23457;51.966;8.230;2023-02-04T09:26:24;102922.91;;;6.33;100.00
37610;BME280;23457;51.966;8.230;2023-02-04T09:28:51;102920.88;;;6.16;100.00
37610;BME280;23457;51.966;8.230;2023-02-04T09:31:17;102925.94;;;6.15;100.00
37610;BME280;23457;51.966;8.230;2023-02-04T09:33:44;102921.19;;;6.21;100.00
37610;BME280;23457;51.966;8.230;2023-02-04T09:36:11;102913.53;;;6.22;100.00
37610;BME280;23457;51.966;8.230;2023-02-04T09:38:38;102928.91;;;6.32;100.00
37610;BME280;23457;51.966;8.230;2023-02-04T09:41:07;102935.03;;;6.09;100.00
37610;BME280;23457;51.966;8.230;2023-02-04T09:43:42;102933.91;;;5.93;100.00
37610;BME280;23457;51.966;8.230;2023-02-04T09:46:22;102939.41;;;6.10;100.00
37610;BME280;23457;51.966;8.230;2023-02-04T09:48:50;102936.50;;;5.69;100.00
37610;BME280;23457;51.966;8.230;2023-02-04T09:51:20;102935.88;;;5.97;100.00
37610;BME280;23457;51.966;8.230;2023-02-04T09:53:48;102929.41;;;5.90;100.00
37610;BME280;23457;51.966;8.230;2023-02-04T09:56:15;102926.06;;;6.16;100.00
37610;BME280;23457;51.966;8.230;2023-02-04T09:58:42;102936.19;;;6.51;100.00
37610;BME280;23457;51.966;8.230;2023-02-04T10:01:17;102934.63;;;6.66;99.35
37610;BME280;23457;51.966;8.230;2023-02-04T10:03:46;102952.13;;;6.57;97.86
37610;BME280;23457;51.966;8.230;2023-02-04T10:06:22;102953.28;;;6.49;97.85
37610;BME280;23457;51.966;8.230;2023-02-04T10:08:50;102949.22;;;6.28;98.56
37610;BME280;23457;51.966;8.230;2023-02-04T10:11:18;102945.72;;;6.52;98.20
37610;BME280;23457;51.966;8.230;2023-02-04T10:13:47;102946.16;;;6.71;98.12
37610;BME280;23457;51.966;8.230;2023-02-04T10:16:23;102940.72;;;6.80;97.39
37610;BME280;23457;51.966;8.230;2023-02-04T10:19:00;102944.03;;;7.17;98.34
37610;BME280;23457;51.966;8.230;2023-02-04T10:21:30;102950.59;;;7.12;96.84
37610;BME280;23457;51.966;8.230;2023-02-04T10:23:58;102950.97;;;6.92;96.00
37610;BME280;23457;51.966;8.230;2023-02-04T10:26:28;102943.13;;;6.90;94.19
37610;BME280;23457;51.966;8.230;2023-02-04T10:29:00;102948.28;;;6.90;91.82
37610;BME280;23457;51.966;8.230;2023-02-04T10:31:34;102955.56;;;6.96;92.30
37610;BME280;23457;51.966;8.230;2023-02-04T10:36:41;102969.41;;;6.71;94.19
37610;BME280;23457;51.966;8.230;2023-02-04T10:39:29;102973.84;;;6.99;92.69
37610;BME280;23457;51.966;8.230;2023-02-04T10:41:58;102980.75;;;6.73;90.60
37610;BME280;23457;51.966;8.230;2023-02-04T10:44:29;102981.63;;;7.12;86.90
37610;BME280;23457;51.966;8.230;2023-02-04T10:47:04;102982.41;;;7.11;85.30
37610;BME280;23457;51.966;8.230;2023-02-04T10:49:32;102975.47;;;7.23;83.50
37610;BME280;23457;51.966;8.230;2023-02-04T10:52:00;102968.28;;;6.93;86.19
37610;BME280;23457;51.966;8.230;2023-02-04T10:54:34;102965.81;;;6.94;86.49
37610;BME280;23457;51.966;8.230;2023-02-04T10:57:24;102967.09;;;7.01;87.94
37610;BME280;23457;51.966;8.230;2023-02-04T10:59:57;102962.25;;;7.32;87.44
37610;BME280;23457;51.966;8.230;2023-02-04T11:05:18;102966.41;;;7.16;87.71
37610;BME280;23457;51.966;8.230;2023-02-04T11:07:46;102966.50;;;7.58;87.46
37610;BME280;23457;51.966;8.230;2023-02-04T11:10:18;102967.09;;;7.67;84.33
37610;BME280;23457;51.966;8.230;2023-02-04T11:12:59;102973.25;;;7.69;82.30
37610;BME280;23457;51.966;8.230;2023-02-04T11:15:40;102976.28;;;7.89;84.67
37610;BME280;23457;51.966;8.230;2023-02-04T11:18:12;102976.53;;;8.07;82.23
37610;BME280;23457;51.966;8.230;2023-02-04T11:20:57;102976.22;;;8.16;83.44
37610;BME280;23457;51.966;8.230;2023-02-04T11:33:48;102969.97;;;8.40;82.86
37610;BME280;23457;51.966;8.230;2023-02-04T11:36:16;102969.44;;;8.46;79.77
37610;BME280;23457;51.966;8.230;2023-02-04T11:38:48;102981.03;;;8.38;79.00
37610;BME280;23457;51.966;8.230;2023-02-04T11:41:27;102977.03;;;8.43;81.35
37610;BME280;23457;51.966;8.230;2023-02-04T11:43:56;102985.16;;;8.49;83.17
37610;BME280;23457;51.966;8.230;2023-02-04T11:46:25;102978.97;;;8.60;80.44
37610;BME280;23457;51.966;8.230;2023-02-04T11:48:55;102983.69;;;8.67;76.67
37610;BME280;23457;51.966;8.230;2023-02-04T11:51:31;102982.50;;;8.62;73.49
37610;BME280;23457;51.966;8.230;2023-02-04T11:53:58;102985.34;;;8.52;75.30
37610;BME280;23457;51.966;8.230;2023-02-04T11:56:27;102985.00;;;8.46;77.80
37610;BME280;23457;51.966;8.230;2023-02-04T11:58:57;102983.63;;;8.24;74.71
37610;BME280;23457;51.966;8.230;2023-02-04T12:01:30;102974.41;;;8.15;74.45
37610;BME280;23457;51.966;8.230;2023-02-04T12:03:59;102983.28;;;8.18;76.83
37610;BME280;23457;51.966;8.230;2023-02-04T12:06:32;102983.94;;;8.29;77.27
37610;BME280;23457;51.966;8.230;2023-02-04T12:11:33;102982.00;;;8.12;73.17
37610;BME280;23457;51.966;8.230;2023-02-04T12:14:08;102990.56;;;8.11;75.01
37610;BME280;23457;51.966;8.230;2023-02-04T12:16:49;102986.47;;;8.14;73.72
37610;BME280;23457;51.966;8.230;2023-02-04T12:19:18;102985.53;;;8.27;75.29
37610;BME280;23457;51.966;8.230;2023-02-04T12:21:45;102978.66;;;8.27;75.94
37610;BME280;23457;51.966;8.230;2023-02-04T12:24:11;102982.31;;;8.44;74.08
37610;BME280;23457;51.966;8.230;2023-02-04T12:26:38;102978.38;;;8.51;75.44
37610;BME280;23457;51.966;8.230;2023-02-04T12:29:05;102983.41;;;8.77;75.30
37610;BME280;23457;51.966;8.230;2023-02-04T12:31:32;102980.56;;;8.87;70.82
37610;BME280;23457;51.966;8.230;2023-02-04T12:33:59;102991.81;;;8.88;70.78
37610;BME280;23457;51.966;8.230;2023-02-04T12:36:26;102982.91;;;8.83;68.51
37610;BME280;23457;51.966;8.230;2023-02-04T12:38:55;102987.28;;;8.84;70.61
37610;BME280;23457;51.966;8.230;2023-02-04T12:41:25;102989.59;;;8.79;70.80
37610;BME280;23457;51.966;8.230;2023-02-04T12:43:52;102992.38;;;8.82;69.80
37610;BME280;23457;51.966;8.230;2023-02-04T12:46:21;103004.16;;;8.77;68.89
37610;BME280;23457;51.966;8.230;2023-02-04T12:48:47;102999.88;;;8.78;68.87
37610;BME280;23457;51.966;8.230;2023-02-04T12:51:14;103003.09;;;8.88;70.78
37610;BME280;23457;51.966;8.230;2023-02-04T12:53:41;102999.38;;;8.98;72.44
37610;BME280;23457;51.966;8.230;2023-02-04T12:56:07;103011.50;;;9.14;67.73
37610;BME280;23457;51.966;8.230;2023-02-04T12:58:34;103013.84;;;8.94;66.25
37610;BME280;23457;51.966;8.230;2023-02-04T13:01:01;102996.84;;;8.99;67.44
37610;BME280;23457;51.966;8.230;2023-02-04T13:03:30;103001.31;;;9.02;67.55
37610;BME280;23457;51.966;8.230;2023-02-04T13:05:57;103006.06;;;9.24;68.80
37610;BME280;23457;51.966;8.230;2023-02-04T13:08:24;103003.28;;;9.36;69.11
37610;BME280;23457;51.966;8.230;2023-02-04T13:10:50;103002.31;;;9.64;72.69
37610;BME280;23457;51.966;8.230;2023-02-04T13:13:18;102991.19;;;9.67;65.29
37610;BME280;23457;51.966;8.230;2023-02-04T13:15:45;102991.88;;;9.48;63.54